sensor_id;sensor_type;location;lat;lon;timestamp;temperature;humidity
1337;DHT22;662;48.814;9.318;2023-04-03T00:01:37;7.30;56.10
1337;DHT22;662;48.814;9.318;2023-04-03T00:04:04;7.30;56.00
1337;DHT22;662;48.814;9.318;2023-04-03T00:06:31;7.30;56.10
1337;DHT22;662;48.814;9.318;2023-04-03T00:08:56;7.30;56.10
1337;DHT22;662;48.814;9.318;2023-04-03T00:11:22;7.30;56.10
1337;DHT22;662;48.814;9.318;2023-04-03T00:13:48;7.30;56.10
1337;DHT22;662;48.814;9.318;2023-04-03T00:16:13;7.30;56.10
1337;DHT22;662;48.814;9.318;2023-04-03T00:18:40;7.30;56.00
1337;DHT22;662;48.814;9.318;2023-04-03T00:21:06;7.30;56.00
1337;DHT22;662;48.814;9.318;2023-04-03T00:23:32;7.30;55.90
1337;DHT22;662;48.814;9.318;2023-04-03T00:25:58;7.30;55.80
1337;DHT22;662;48.814;9.318;2023-04-03T00:28:23;7.30;55.80
1337;DHT22;662;48.814;9.318;2023-04-03T00:30:49;7.30;55.90
1337;DHT22;662;48.814;9.318;2023-04-03T00:33:15;7.30;55.90
1337;DHT22;662;48.814;9.318;2023-04-03T00:35:41;7.20;55.80
1337;DHT22;662;48.814;9.318;2023-04-03T00:38:07;7.20;55.80
1337;DHT22;662;48.814;9.318;2023-04-03T00:40:36;7.20;55.80
1337;DHT22;662;48.814;9.318;2023-04-03T00:43:12;7.20;55.80
1337;DHT22;662;48.814;9.318;2023-04-03T00:45:41;7.20;55.80
1337;DHT22;662;48.814;9.318;2023-04-03T00:48:11;7.20;55.80
1337;DHT22;662;48.814;9.318;2023-04-03T00:50:40;7.20;55.90
1337;DHT22;662;48.814;9.318;2023-04-03T00:53:08;7.20;55.90
1337;DHT22;662;48.814;9.318;2023-04-03T00:55:35;7.10;55.80
1337;DHT22;662;48.814;9.318;2023-04-03T00:58:02;7.20;55.90
1337;DHT22;662;48.814;9.318;2023-04-03T01:00:28;7.10;55.80
1337;DHT22;662;48.814;9.318;2023-04-03T01:02:54;7.10;55.80
1337;DHT22;662;48.814;9.318;2023-04-03T01:05:21;7.10;55.80
1337;DHT22;662;48.814;9.318;2023-04-03T01:07:48;7.10;55.90
1337;DHT22;662;48.814;9.318;2023-04-03T01:10:15;7.10;55.80
1337;DHT22;662;48.814;9.318;2023-04-03T01:12:44;7.00;55.80
1337;DHT22;662;48.814;9.318;2023-04-03T01:15:14;7.10;55.90
1337;DHT22;662;48.814;9.318;2023-04-03T01:17:57;7.00;55.80
1337;DHT22;662;48.814;9.318;2023-04-03T01:25:43;7.00;55.80
1337;DHT22;662;48.814;9.318;2023-04-03T01:28:13;7.00;55.90
1337;DHT22;662;48.814;9.318;2023-04-03T01:30:50;6.90;55.80
1337;DHT22;662;48.814;9.318;2023-04-03T01:33:17;7.00;55.90
1337;DHT22;662;48.814;9.318;2023-04-03T01:35:43;6.90;55.70
1337;DHT22;662;48.814;9.318;2023-04-03T01:38:09;7.00;55.90
1337;DHT22;662;48.814;9.318;2023-04-03T01:40:35;6.90;55.90
1337;DHT22;662;48.814;9.318;2023-04-03T01:43:01;7.00;56.00
1337;DHT22;662;48.814;9.318;2023-04-03T01:45:27;7.00;56.00
1337;DHT22;662;48.814;9.318;2023-04-03T01:47:52;7.00;55.90
1337;DHT22;662;48.814;9.318;2023-04-03T01:50:18;7.00;55.90
1337;DHT22;662;48.814;9.318;2023-04-03T01:52:43;7.00;55.90
1337;DHT22;662;48.814;9.318;2023-04-03T01:55:09;7.00;55.80
1337;DHT22;662;48.814;9.318;2023-04-03T01:57:35;7.00;55.80
1337;DHT22;662;48.814;9.318;2023-04-03T02:00:00;7.00;55.80
1337;DHT22;662;48.814;9.318;2023-04-03T02:02:26;7.00;55.80
1337;DHT22;662;48.814;9.318;2023-04-03T02:04:51;7.00;55.70
1337;DHT22;662;48.814;9.318;2023-04-03T02:07:17;7.00;55.70
1337;DHT22;662;48.814;9.318;2023-04-03T02:09:43;7.00;56.10
1337;DHT22;662;48.814;9.318;2023-04-03T02:12:08;7.00;55.50
1337;DHT22;662;48.814;9.318;2023-04-03T02:14:34;7.00;55.50
1337;DHT22;662;48.814;9.318;2023-04-03T02:17:01;7.00;55.50
1337;DHT22;662;48.814;9.318;2023-04-03T02:19:30;7.00;55.50
1337;DHT22;662;48.814;9.318;2023-04-03T02:21:56;7.00;55.40
1337;DHT22;662;48.814;9.318;2023-04-03T02:24:22;7.00;55.40
1337;DHT22;662;48.814;9.318;2023-04-03T02:26:47;7.00;55.20
1337;DHT22;662;48.814;9.318;2023-04-03T02:29:13;7.00;55.00
1337;DHT22;662;48.814;9.318;2023-04-03T02:31:39;7.00;55.00
1337;DHT22;662;48.814;9.318;2023-04-03T02:34:05;7.00;54.90
1337;DHT22;662;48.814;9.318;2023-04-03T02:36:31;7.00;54.90
1337;DHT22;662;48.814;9.318;2023-04-03T02:38:56;7.00;54.90
1337;DHT22;662;48.814;9.318;2023-04-03T02:41:22;7.00;55.00
1337;DHT22;662;48.814;9.318;2023-04-03T02:43:47;7.00;55.00
1337;DHT22;662;48.814;9.318;2023-04-03T02:46:13;7.00;55.10
1337;DHT22;662;48.814;9.318;2023-04-03T02:48:40;7.00;55.10
1337;DHT22;662;48.814;9.318;2023-04-03T02:51:06;7.00;55.10
1337;DHT22;662;48.814;9.318;2023-04-03T02:53:31;7.00;55.10
1337;DHT22;662;48.814;9.318;2023-04-03T02:55:57;6.90;55.20
1337;DHT22;662;48.814;9.318;2023-04-03T02:58:23;6.90;55.80
1337;DHT22;662;48.814;9.318;2023-04-03T03:00:48;6.90;55.40
1337;DHT22;662;48.814;9.318;2023-04-03T03:03:14;6.90;55.30
1337;DHT22;662;48.814;9.318;2023-04-03T03:05:40;6.90;55.20
1337;DHT22;662;48.814;9.318;2023-04-03T03:08:06;6.80;55.10
1337;DHT22;662;48.814;9.318;2023-04-03T03:10:31;6.80;55.00
1337;DHT22;662;48.814;9.318;2023-04-03T03:12:57;6.90;55.10
1337;DHT22;662;48.814;9.318;2023-04-03T03:15:22;6.90;55.00
1337;DHT22;662;48.814;9.318;2023-04-03T03:17:48;6.90;55.10
1337;DHT22;662;48.814;9.318;2023-04-03T03:20:14;6.90;55.00
1337;DHT22;662;48.814;9.318;2023-04-03T03:22:40;6.90;54.80
1337;DHT22;662;48.814;9.318;2023-04-03T03:25:06;6.90;54.60
1337;DHT22;662;48.814;9.318;2023-04-03T03:27:32;6.90;54.50
1337;DHT22;662;48.814;9.318;2023-04-03T03:29:58;7.00;54.60
1337;DHT22;662;48.814;9.318;2023-04-03T03:32:23;7.00;54.70
1337;DHT22;662;48.814;9.318;2023-04-03T03:34:49;7.00;54.70
1337;DHT22;662;48.814;9.318;2023-04-03T03:37:15;7.00;54.60
1337;DHT22;662;48.814;9.318;2023-04-03T03:39:41;7.00;54.60
1337;DHT22;662;48.814;9.318;2023-04-03T03:42:06;7.00;54.70
1337;DHT22;662;48.814;9.318;2023-04-03T03:44:32;7.00;54.80
1337;DHT22;662;48.814;9.318;2023-04-03T03:46:57;7.00;54.80
1337;DHT22;662;48.814;9.318;2023-04-03T03:49:23;7.00;54.90
1337;DHT22;662;48.814;9.318;2023-04-03T03:51:48;7.00;54.90
1337;DHT22;662;48.814;9.318;2023-04-03T03:54:15;7.00;54.90
1337;DHT22;662;48.814;9.318;2023-04-03T03:56:41;7.00;54.90
1337;DHT22;662;48.814;9.318;2023-04-03T03:59:06;7.00;54.90
1337;DHT22;662;48.814;9.318;2023-04-03T04:01:32;7.00;54.70
1337;DHT22;662;48.814;9.318;2023-04-03T04:03:58;7.10;54.70
1337;DHT22;662;48.814;9.318;2023-04-03T04:06:23;7.00;54.70
1337;DHT22;662;48.814;9.318;2023-04-03T04:08:49;7.00;54.80
1337;DHT22;662;48.814;9.318;2023-04-03T04:11:15;7.00;54.90
1337;DHT22;662;48.814;9.318;2023-04-03T04:13:40;7.00;55.00
1337;DHT22;662;48.814;9.318;2023-04-03T04:16:07;7.10;55.10
1337;DHT22;662;48.814;9.318;2023-04-03T04:18:33;7.10;55.10
1337;DHT22;662;48.814;9.318;2023-04-03T04:20:58;7.10;54.90
1337;DHT22;662;48.814;9.318;2023-04-03T04:23:24;7.10;54.80
1337;DHT22;662;48.814;9.318;2023-04-03T04:25:50;7.10;54.50
1337;DHT22;662;48.814;9.318;2023-04-03T04:28:16;7.10;54.20
1337;DHT22;662;48.814;9.318;2023-04-03T04:30:42;7.10;54.10
1337;DHT22;662;48.814;9.318;2023-04-03T04:33:08;7.10;53.90
1337;DHT22;662;48.814;9.318;2023-04-03T04:35:33;7.10;53.80
1337;DHT22;662;48.814;9.318;2023-04-03T04:37:59;7.10;53.70
1337;DHT22;662;48.814;9.318;2023-04-03T04:40:25;7.10;53.50
1337;DHT22;662;48.814;9.318;2023-04-03T04:42:51;7.20;53.60
1337;DHT22;662;48.814;9.318;2023-04-03T04:45:17;7.20;53.70
1337;DHT22;662;48.814;9.318;2023-04-03T04:47:43;7.20;53.80
1337;DHT22;662;48.814;9.318;2023-04-03T04:50:09;7.20;53.80
1337;DHT22;662;48.814;9.318;2023-04-03T04:52:35;7.20;53.80
1337;DHT22;662;48.814;9.318;2023-04-03T04:55:01;7.20;53.80
1337;DHT22;662;48.814;9.318;2023-04-03T04:57:26;7.20;53.70
1337;DHT22;662;48.814;9.318;2023-04-03T04:59:52;7.20;53.50
1337;DHT22;662;48.814;9.318;2023-04-03T05:02:17;7.20;53.40
1337;DHT22;662;48.814;9.318;2023-04-03T05:04:43;7.20;53.30
1337;DHT22;662;48.814;9.318;2023-04-03T05:07:09;7.20;53.20
1337;DHT22;662;48.814;9.318;2023-04-03T05:09:35;7.20;53.10
1337;DHT22;662;48.814;9.318;2023-04-03T05:12:01;7.20;53.20
1337;DHT22;662;48.814;9.318;2023-04-03T05:14:28;7.20;52.90
1337;DHT22;662;48.814;9.318;2023-04-03T05:16:54;7.20;52.70
1337;DHT22;662;48.814;9.318;2023-04-03T05:19:20;7.10;52.50
1337;DHT22;662;48.814;9.318;2023-04-03T05:21:46;7.10;52.50
1337;DHT22;662;48.814;9.318;2023-04-03T05:24:13;7.10;52.60
1337;DHT22;662;48.814;9.318;2023-04-03T05:26:40;7.10;52.70
1337;DHT22;662;48.814;9.318;2023-04-03T05:29:05;7.00;52.70
1337;DHT22;662;48.814;9.318;2023-04-03T05:31:31;7.00;52.80
1337;DHT22;662;48.814;9.318;2023-04-03T05:33:57;7.00;52.90
1337;DHT22;662;48.814;9.318;2023-04-03T05:36:23;7.00;53.00
1337;DHT22;662;48.814;9.318;2023-04-03T05:38:49;7.00;53.10
1337;DHT22;662;48.814;9.318;2023-04-03T05:41:15;7.00;53.20
1337;DHT22;662;48.814;9.318;2023-04-03T05:43:41;7.00;53.30
1337;DHT22;662;48.814;9.318;2023-04-03T05:46:13;7.00;53.40
1337;DHT22;662;48.814;9.318;2023-04-03T05:48:40;7.00;53.60
1337;DHT22;662;48.814;9.318;2023-04-03T05:51:06;7.00;53.60
1337;DHT22;662;48.814;9.318;2023-04-03T05:53:35;7.00;53.60
1337;DHT22;662;48.814;9.318;2023-04-03T05:56:02;7.10;53.70
1337;DHT22;662;48.814;9.318;2023-04-03T05:58:28;7.10;53.80
1337;DHT22;662;48.814;9.318;2023-04-03T06:00:54;7.20;54.00
1337;DHT22;662;48.814;9.318;2023-04-03T06:03:19;7.20;53.80
1337;DHT22;662;48.814;9.318;2023-04-03T06:05:45;7.20;53.70
1337;DHT22;662;48.814;9.318;2023-04-03T06:08:16;7.20;53.60
1337;DHT22;662;48.814;9.318;2023-04-03T06:10:49;7.30;53.40
1337;DHT22;662;48.814;9.318;2023-04-03T06:13:18;7.20;53.10
1337;DHT22;662;48.814;9.318;2023-04-03T06:15:43;7.30;53.10
1337;DHT22;662;48.814;9.318;2023-04-03T06:18:09;7.30;53.10
1337;DHT22;662;48.814;9.318;2023-04-03T06:20:35;7.20;53.00
1337;DHT22;662;48.814;9.318;2023-04-03T06:23:01;7.20;52.90
1337;DHT22;662;48.814;9.318;2023-04-03T06:25:26;7.20;52.80
1337;DHT22;662;48.814;9.318;2023-04-03T06:27:52;7.30;52.90
1337;DHT22;662;48.814;9.318;2023-04-03T06:30:21;7.20;52.80
1337;DHT22;662;48.814;9.318;2023-04-03T06:32:46;7.20;52.80
1337;DHT22;662;48.814;9.318;2023-04-03T06:35:12;7.20;52.90
1337;DHT22;662;48.814;9.318;2023-04-03T06:37:37;7.20;52.90
1337;DHT22;662;48.814;9.318;2023-04-03T06:40:04;7.20;52.90
1337;DHT22;662;48.814;9.318;2023-04-03T06:42:30;7.20;53.00
1337;DHT22;662;48.814;9.318;2023-04-03T06:44:55;7.20;53.00
1337;DHT22;662;48.814;9.318;2023-04-03T06:47:21;7.20;53.00
1337;DHT22;662;48.814;9.318;2023-04-03T06:49:47;7.20;53.60
1337;DHT22;662;48.814;9.318;2023-04-03T06:52:12;7.20;53.10
1337;DHT22;662;48.814;9.318;2023-04-03T06:54:39;7.20;53.00
1337;DHT22;662;48.814;9.318;2023-04-03T06:57:05;7.30;53.10
1337;DHT22;662;48.814;9.318;2023-04-03T06:59:31;7.30;53.00
1337;DHT22;662;48.814;9.318;2023-04-03T07:01:56;7.30;53.00
1337;DHT22;662;48.814;9.318;2023-04-03T07:04:23;7.30;52.90
1337;DHT22;662;48.814;9.318;2023-04-03T07:06:49;7.40;53.00
1337;DHT22;662;48.814;9.318;2023-04-03T07:09:15;7.40;53.00
1337;DHT22;662;48.814;9.318;2023-04-03T07:11:41;7.40;53.10
1337;DHT22;662;48.814;9.318;2023-04-03T07:14:07;7.50;53.10
1337;DHT22;662;48.814;9.318;2023-04-03T07:16:34;7.50;53.10
1337;DHT22;662;48.814;9.318;2023-04-03T07:19:01;7.50;53.00
1337;DHT22;662;48.814;9.318;2023-04-03T07:21:27;7.60;53.00
1337;DHT22;662;48.814;9.318;2023-04-03T07:23:53;7.70;53.10
1337;DHT22;662;48.814;9.318;2023-04-03T07:26:18;7.70;53.20
1337;DHT22;662;48.814;9.318;2023-04-03T07:28:46;7.80;53.20
1337;DHT22;662;48.814;9.318;2023-04-03T07:31:14;7.80;53.00
1337;DHT22;662;48.814;9.318;2023-04-03T07:33:41;8.00;53.00
1337;DHT22;662;48.814;9.318;2023-04-03T07:36:09;8.00;52.70
1337;DHT22;662;48.814;9.318;2023-04-03T07:38:35;8.00;52.60
1337;DHT22;662;48.814;9.318;2023-04-03T07:41:02;8.10;52.50
1337;DHT22;662;48.814;9.318;2023-04-03T07:43:28;8.10;52.10
1337;DHT22;662;48.814;9.318;2023-04-03T07:45:53;8.00;51.90
1337;DHT22;662;48.814;9.318;2023-04-03T07:48:24;8.10;51.80
1337;DHT22;662;48.814;9.318;2023-04-03T07:50:51;8.10;51.80
1337;DHT22;662;48.814;9.318;2023-04-03T07:53:17;8.10;51.80
1337;DHT22;662;48.814;9.318;2023-04-03T07:55:45;8.10;51.90
1337;DHT22;662;48.814;9.318;2023-04-03T07:58:13;8.20;52.10
1337;DHT22;662;48.814;9.318;2023-04-03T08:00:40;8.20;52.10
1337;DHT22;662;48.814;9.318;2023-04-03T08:03:07;8.30;52.00
1337;DHT22;662;48.814;9.318;2023-04-03T08:05:37;8.40;52.10
1337;DHT22;662;48.814;9.318;2023-04-03T08:08:03;8.40;52.20
1337;DHT22;662;48.814;9.318;2023-04-03T08:10:32;8.50;52.00
1337;DHT22;662;48.814;9.318;2023-04-03T08:12:58;8.60;51.80
1337;DHT22;662;48.814;9.318;2023-04-03T08:15:24;8.70;51.70
1337;DHT22;662;48.814;9.318;2023-04-03T08:17:50;8.90;51.80
1337;DHT22;662;48.814;9.318;2023-04-03T08:20:17;9.00;51.60
1337;DHT22;662;48.814;9.318;2023-04-03T08:22:42;9.10;51.30
1337;DHT22;662;48.814;9.318;2023-04-03T08:25:08;9.20;51.10
1337;DHT22;662;48.814;9.318;2023-04-03T08:27:34;9.30;51.10
1337;DHT22;662;48.814;9.318;2023-04-03T08:30:00;9.40;50.90
1337;DHT22;662;48.814;9.318;2023-04-03T08:32:26;9.50;50.20
1337;DHT22;662;48.814;9.318;2023-04-03T08:34:53;9.60;50.50
1337;DHT22;662;48.814;9.318;2023-04-03T08:37:18;9.60;49.30
1337;DHT22;662;48.814;9.318;2023-04-03T08:39:45;9.60;49.10
1337;DHT22;662;48.814;9.318;2023-04-03T08:48:08;9.40;49.00
1337;DHT22;662;48.814;9.318;2023-04-03T08:50:46;9.20;48.90
1337;DHT22;662;48.814;9.318;2023-04-03T08:53:19;9.20;49.00
1337;DHT22;662;48.814;9.318;2023-04-03T08:55:48;9.20;49.30
1337;DHT22;662;48.814;9.318;2023-04-03T08:58:28;9.20;49.50
1337;DHT22;662;48.814;9.318;2023-04-03T09:01:03;9.20;49.60
1337;DHT22;662;48.814;9.318;2023-04-03T09:03:36;9.20;49.30
1337;DHT22;662;48.814;9.318;2023-04-03T09:06:06;9.20;49.20
1337;DHT22;662;48.814;9.318;2023-04-03T09:11:20;9.20;49.10
1337;DHT22;662;48.814;9.318;2023-04-03T09:13:49;9.20;49.00
1337;DHT22;662;48.814;9.318;2023-04-03T09:21:38;9.30;49.30
1337;DHT22;662;48.814;9.318;2023-04-03T09:24:09;9.30;49.40
1337;DHT22;662;48.814;9.318;2023-04-03T09:26:57;9.30;49.40
1337;DHT22;662;48.814;9.318;2023-04-03T09:29:25;9.30;49.70
1337;DHT22;662;48.814;9.318;2023-04-03T09:32:01;9.20;49.50
1337;DHT22;662;48.814;9.318;2023-04-03T09:34:35;9.30;49.60
1337;DHT22;662;48.814;9.318;2023-04-03T09:37:03;9.20;48.70
1337;DHT22;662;48.814;9.318;2023-04-03T09:39:33;9.20;48.70
1337;DHT22;662;48.814;9.318;2023-04-03T09:42:20;9.30;49.00
1337;DHT22;662;48.814;9.318;2023-04-03T09:45:00;9.40;49.00
1337;DHT22;662;48.814;9.318;2023-04-03T09:50:28;9.50;48.40
1337;DHT22;662;48.814;9.318;2023-04-03T09:52:54;9.50;49.20
1337;DHT22;662;48.814;9.318;2023-04-03T09:55:22;9.60;49.00
1337;DHT22;662;48.814;9.318;2023-04-03T09:57:53;9.70;49.20
1337;DHT22;662;48.814;9.318;2023-04-03T10:00:22;9.70;48.30
1337;DHT22;662;48.814;9.318;2023-04-03T10:02:52;9.70;47.90
1337;DHT22;662;48.814;9.318;2023-04-03T10:05:27;9.80;48.10
1337;DHT22;662;48.814;9.318;2023-04-03T10:08:15;9.80;48.30
1337;DHT22;662;48.814;9.318;2023-04-03T10:10:46;10.00;47.70
1337;DHT22;662;48.814;9.318;2023-04-03T10:13:18;10.00;47.10
1337;DHT22;662;48.814;9.318;2023-04-03T10:16:09;9.90;47.60
1337;DHT22;662;48.814;9.318;2023-04-03T10:21:39;9.70;47.70
1337;DHT22;662;48.814;9.318;2023-04-03T10:27:11;9.40;48.00
1337;DHT22;662;48.814;9.318;2023-04-03T10:29:50;9.40;48.20
1337;DHT22;662;48.814;9.318;2023-04-03T10:35:02;9.40;48.40
1337;DHT22;662;48.814;9.318;2023-04-03T10:37:50;9.50;48.70
1337;DHT22;662;48.814;9.318;2023-04-03T10:40:43;9.50;48.50
1337;DHT22;662;48.814;9.318;2023-04-03T10:43:44;9.50;48.50
1337;DHT22;662;48.814;9.318;2023-04-03T10:46:22;9.40;47.90
1337;DHT22;662;48.814;9.318;2023-04-03T10:49:16;9.40;47.30
1337;DHT22;662;48.814;9.318;2023-04-03T10:51:56;9.40;47.20
1337;DHT22;662;48.814;9.318;2023-04-03T10:54:36;9.40;47.00
1337;DHT22;662;48.814;9.318;2023-04-03T10:57:08;9.50;47.00
1337;DHT22;662;48.814;9.318;2023-04-03T10:59:55;9.60;46.90
1337;DHT22;662;48.814;9.318;2023-04-03T11:02:30;9.70;46.80
1337;DHT22;662;48.814;9.318;2023-04-03T11:05:02;9.70;46.20
1337;DHT22;662;48.814;9.318;2023-04-03T11:07:34;9.70;45.70
1337;DHT22;662;48.814;9.318;2023-04-03T11:12:54;9.60;44.80
1337;DHT22;662;48.814;9.318;2023-04-03T11:15:23;9.60;44.40
1337;DHT22;662;48.814;9.318;2023-04-03T11:18:04;9.60;44.00
1337;DHT22;662;48.814;9.318;2023-04-03T11:20:32;9.80;44.40
1337;DHT22;662;48.814;9.318;2023-04-03T11:23:19;9.90;43.60
1337;DHT22;662;48.814;9.318;2023-04-03T11:25:51;9.90;43.30
1337;DHT22;662;48.814;9.318;2023-04-03T11:28:17;9.90;44.10
1337;DHT22;662;48.814;9.318;2023-04-03T11:36:12;9.80;44.60
1337;DHT22;662;48.814;9.318;2023-04-03T11:38:46;9.80;44.80
1337;DHT22;662;48.814;9.318;2023-04-03T11:41:30;9.80;45.30
1337;DHT22;662;48.814;9.318;2023-04-03T11:44:03;9.90;45.50
1337;DHT22;662;48.814;9.318;2023-04-03T11:46:49;9.90;45.40
1337;DHT22;662;48.814;9.318;2023-04-03T12:08:47;9.80;44.90
1337;DHT22;662;48.814;9.318;2023-04-03T12:11:24;9.90;45.00
1337;DHT22;662;48.814;9.318;2023-04-03T12:16:32;10.00;43.20
1337;DHT22;662;48.814;9.318;2023-04-03T12:24:05;9.90;43.90
1337;DHT22;662;48.814;9.318;2023-04-03T12:29:34;9.90;42.80
1337;DHT22;662;48.814;9.318;2023-04-03T12:32:24;9.90;43.40
1337;DHT22;662;48.814;9.318;2023-04-03T12:48:17;10.00;43.30
1337;DHT22;662;48.814;9.318;2023-04-03T12:50:45;10.10;43.00
1337;DHT22;662;48.814;9.318;2023-04-03T12:53:18;10.20;42.70
1337;DHT22;662;48.814;9.318;2023-04-03T12:55:44;10.30;42.60
1337;DHT22;662;48.814;9.318;2023-04-03T12:58:15;10.30;42.50
1337;DHT22;662;48.814;9.318;2023-04-03T13:00:42;10.40;42.20
1337;DHT22;662;48.814;9.318;2023-04-03T13:03:22;10.40;42.20
1337;DHT22;662;48.814;9.318;2023-04-03T13:05:48;10.30;41.90
1337;DHT22;662;48.814;9.318;2023-04-03T13:08:14;10.30;41.90
1337;DHT22;662;48.814;9.318;2023-04-03T13:11:11;10.30;42.00
1337;DHT22;662;48.814;9.318;2023-04-03T13:13:37;10.20;41.90
1337;DHT22;662;48.814;9.318;2023-04-03T13:16:10;10.20;41.40
1337;DHT22;662;48.814;9.318;2023-04-03T13:18:37;10.10;41.00
1337;DHT22;662;48.814;9.318;2023-04-03T13:21:13;10.20;40.90
1337;DHT22;662;48.814;9.318;2023-04-03T13:23:44;10.20;40.80
1337;DHT22;662;48.814;9.318;2023-04-03T13:26:11;10.50;41.10
1337;DHT22;662;48.814;9.318;2023-04-03T13:28:39;10.70;40.90
1337;DHT22;662;48.814;9.318;2023-04-03T13:31:29;10.80;40.00
1337;DHT22;662;48.814;9.318;2023-04-03T13:34:02;10.70;39.40
1337;DHT22;662;48.814;9.318;2023-04-03T13:36:56;10.80;39.50
1337;DHT22;662;48.814;9.318;2023-04-03T13:39:25;10.90;39.60
1337;DHT22;662;48.814;9.318;2023-04-03T13:41:54;11.10;39.50
1337;DHT22;662;48.814;9.318;2023-04-03T13:46:55;11.70;38.40
1337;DHT22;662;48.814;9.318;2023-04-03T13:51:55;11.60;37.70
1337;DHT22;662;48.814;9.318;2023-04-03T13:54:24;11.50;38.00
1337;DHT22;662;48.814;9.318;2023-04-03T13:56:56;11.40;38.30
1337;DHT22;662;48.814;9.318;2023-04-03T13:59:35;11.30;38.50
1337;DHT22;662;48.814;9.318;2023-04-03T14:04:50;11.10;38.80
1337;DHT22;662;48.814;9.318;2023-04-03T14:07:15;11.00;39.00
1337;DHT22;662;48.814;9.318;2023-04-03T14:09:42;10.90;39.10
1337;DHT22;662;48.814;9.318;2023-04-03T14:12:15;10.90;39.10
1337;DHT22;662;48.814;9.318;2023-04-03T14:14:41;10.90;39.00
1337;DHT22;662;48.814;9.318;2023-04-03T14:17:17;10.80;38.80
1337;DHT22;662;48.814;9.318;2023-04-03T14:19:43;11.10;38.90
1337;DHT22;662;48.814;9.318;2023-04-03T14:22:24;11.90;38.40
1337;DHT22;662;48.814;9.318;2023-04-03T14:24:51;12.20;37.40
1337;DHT22;662;48.814;9.318;2023-04-03T14:27:35;12.20;37.10
1337;DHT22;662;48.814;9.318;2023-04-03T14:30:02;12.00;36.10
1337;DHT22;662;48.814;9.318;2023-04-03T14:32:30;11.70;36.60
1337;DHT22;662;48.814;9.318;2023-04-03T14:34:56;11.50;37.00
1337;DHT22;662;48.814;9.318;2023-04-03T14:37:26;11.30;37.40
1337;DHT22;662;48.814;9.318;2023-04-03T14:39:53;11.20;38.00
1337;DHT22;662;48.814;9.318;2023-04-03T14:42:23;11.20;38.80
1337;DHT22;662;48.814;9.318;2023-04-03T14:44:49;11.10;38.50
1337;DHT22;662;48.814;9.318;2023-04-03T14:47:19;11.20;38.40
1337;DHT22;662;48.814;9.318;2023-04-03T14:49:46;11.10;38.00
1337;DHT22;662;48.814;9.318;2023-04-03T14:52:20;11.20;38.00
1337;DHT22;662;48.814;9.318;2023-04-03T14:54:47;11.10;37.60
1337;DHT22;662;48.814;9.318;2023-04-03T14:57:14;11.10;37.50
1337;DHT22;662;48.814;9.318;2023-04-03T14:59:40;11.20;37.80
1337;DHT22;662;48.814;9.318;2023-04-03T15:04:54;11.20;37.00
1337;DHT22;662;48.814;9.318;2023-04-03T15:07:20;11.10;36.60
1337;DHT22;662;48.814;9.318;2023-04-03T15:09:46;10.90;36.50
1337;DHT22;662;48.814;9.318;2023-04-03T15:12:12;10.70;36.90
1337;DHT22;662;48.814;9.318;2023-04-03T15:14:38;10.70;37.50
1337;DHT22;662;48.814;9.318;2023-04-03T15:17:15;10.60;37.50
1337;DHT22;662;48.814;9.318;2023-04-03T15:19:42;10.40;37.40
1337;DHT22;662;48.814;9.318;2023-04-03T15:22:17;10.40;37.50
1337;DHT22;662;48.814;9.318;2023-04-03T15:24:44;10.40;37.40
1337;DHT22;662;48.814;9.318;2023-04-03T15:27:11;10.40;37.30
1337;DHT22;662;48.814;9.318;2023-04-03T15:29:38;10.30;37.40
1337;DHT22;662;48.814;9.318;2023-04-03T15:32:04;10.30;38.00
1337;DHT22;662;48.814;9.318;2023-04-03T15:34:30;10.30;37.60
1337;DHT22;662;48.814;9.318;2023-04-03T15:36:56;10.30;37.80
1337;DHT22;662;48.814;9.318;2023-04-03T15:39:22;10.40;37.60
1337;DHT22;662;48.814;9.318;2023-04-03T15:41:49;10.50;37.90
1337;DHT22;662;48.814;9.318;2023-04-03T15:44:17;10.60;37.70
1337;DHT22;662;48.814;9.318;2023-04-03T15:46:48;10.70;37.50
1337;DHT22;662;48.814;9.318;2023-04-03T15:49:17;10.80;37.30
1337;DHT22;662;48.814;9.318;2023-04-03T15:51:43;11.00;37.20
1337;DHT22;662;48.814;9.318;2023-04-03T15:54:08;11.10;37.10
1337;DHT22;662;48.814;9.318;2023-04-03T15:56:34;11.10;37.00
1337;DHT22;662;48.814;9.318;2023-04-03T15:58:59;11.10;36.60
1337;DHT22;662;48.814;9.318;2023-04-03T16:01:25;10.90;36.00
1337;DHT22;662;48.814;9.318;2023-04-03T16:03:52;10.70;35.70
1337;DHT22;662;48.814;9.318;2023-04-03T16:06:18;10.50;36.10
1337;DHT22;662;48.814;9.318;2023-04-03T16:08:45;10.40;36.20
1337;DHT22;662;48.814;9.318;2023-04-03T16:11:11;10.30;36.50
1337;DHT22;662;48.814;9.318;2023-04-03T16:13:37;10.40;36.60
1337;DHT22;662;48.814;9.318;2023-04-03T16:16:04;10.40;36.40
1337;DHT22;662;48.814;9.318;2023-04-03T16:18:30;10.50;36.40
1337;DHT22;662;48.814;9.318;2023-04-03T16:20:56;10.50;36.30
1337;DHT22;662;48.814;9.318;2023-04-03T16:23:23;10.50;36.30
1337;DHT22;662;48.814;9.318;2023-04-03T16:25:49;10.40;36.00
1337;DHT22;662;48.814;9.318;2023-04-03T16:28:16;10.40;36.30
1337;DHT22;662;48.814;9.318;2023-04-03T16:30:46;10.40;36.90
1337;DHT22;662;48.814;9.318;2023-04-03T16:33:12;10.20;36.60
1337;DHT22;662;48.814;9.318;2023-04-03T16:35:39;10.00;36.50
1337;DHT22;662;48.814;9.318;2023-04-03T16:38:05;9.90;37.60
1337;DHT22;662;48.814;9.318;2023-04-03T16:40:30;9.90;37.90
1337;DHT22;662;48.814;9.318;2023-04-03T16:42:56;9.80;38.00
1337;DHT22;662;48.814;9.318;2023-04-03T16:45:22;9.80;38.40
1337;DHT22;662;48.814;9.318;2023-04-03T16:47:47;9.80;38.60
1337;DHT22;662;48.814;9.318;2023-04-03T16:50:13;9.90;38.80
1337;DHT22;662;48.814;9.318;2023-04-03T16:52:39;9.90;39.20
1337;DHT22;662;48.814;9.318;2023-04-03T16:55:05;9.80;38.50
1337;DHT22;662;48.814;9.318;2023-04-03T16:57:31;9.80;38.60
1337;DHT22;662;48.814;9.318;2023-04-03T16:59:57;9.80;38.70
1337;DHT22;662;48.814;9.318;2023-04-03T17:02:24;9.70;38.60
1337;DHT22;662;48.814;9.318;2023-04-03T17:04:51;9.70;38.40
1337;DHT22;662;48.814;9.318;2023-04-03T17:07:21;9.60;38.40
1337;DHT22;662;48.814;9.318;2023-04-03T17:09:47;9.50;38.40
1337;DHT22;662;48.814;9.318;2023-04-03T17:12:13;9.40;38.80
1337;DHT22;662;48.814;9.318;2023-04-03T17:14:39;9.40;38.90
1337;DHT22;662;48.814;9.318;2023-04-03T17:17:04;9.30;38.90
1337;DHT22;662;48.814;9.318;2023-04-03T17:19:30;9.30;38.90
1337;DHT22;662;48.814;9.318;2023-04-03T17:21:57;9.20;39.20
1337;DHT22;662;48.814;9.318;2023-04-03T17:24:23;9.20;39.40
1337;DHT22;662;48.814;9.318;2023-04-03T17:26:49;9.20;39.40
1337;DHT22;662;48.814;9.318;2023-04-03T17:29:15;9.20;39.50
1337;DHT22;662;48.814;9.318;2023-04-03T17:31:40;9.10;39.60
1337;DHT22;662;48.814;9.318;2023-04-03T17:34:06;9.10;39.80
1337;DHT22;662;48.814;9.318;2023-04-03T17:36:33;9.00;39.60
1337;DHT22;662;48.814;9.318;2023-04-03T17:38:59;9.00;39.50
1337;DHT22;662;48.814;9.318;2023-04-03T17:41:25;8.90;39.60
1337;DHT22;662;48.814;9.318;2023-04-03T17:43:51;8.90;39.80
1337;DHT22;662;48.814;9.318;2023-04-03T17:46:19;8.90;40.00
1337;DHT22;662;48.814;9.318;2023-04-03T17:48:44;8.90;40.10
1337;DHT22;662;48.814;9.318;2023-04-03T17:51:14;8.80;40.00
1337;DHT22;662;48.814;9.318;2023-04-03T17:53:40;8.70;40.10
1337;DHT22;662;48.814;9.318;2023-04-03T17:56:12;8.80;40.40
1337;DHT22;662;48.814;9.318;2023-04-03T17:58:38;8.70;40.30
1337;DHT22;662;48.814;9.318;2023-04-03T18:01:09;8.60;40.20
1337;DHT22;662;48.814;9.318;2023-04-03T18:03:35;8.50;40.00
1337;DHT22;662;48.814;9.318;2023-04-03T18:06:03;8.40;40.10
1337;DHT22;662;48.814;9.318;2023-04-03T18:08:37;8.40;40.80
1337;DHT22;662;48.814;9.318;2023-04-03T18:11:04;8.40;40.50
1337;DHT22;662;48.814;9.318;2023-04-03T18:13:29;8.40;40.60